Hanalei, Hawaii
Current Conditions -  °F | °C
As of 1:53 AM on Sunday 25 Jan 2015 (Local Time) from PHLI Reporting Station
Broken Clouds Broken Clouds  
Wind Chill: 67°   Ceiling: 4200
Heat Index: 67°   Visibility: 10mi
Dew Point: 57°   Wind: 6mph
Humidity: 70%   Direction: 330°NNW
Pressure: 30.08"   Gusts: NA
Location:  22.2°N, 159.49°W
Report Text: PHLI 251153Z 33005KT 10SM FEW033 BKN042 19/14 A3008 RMK AO2 SLP183 T01940139 10211 20189 56011
Loading
Personal Weather Stations






























Interactive Weather Map New forecast layout! Learn more

10-Day Weather Forecast

Advertisements
Track Severe Weather on mobile